PIA185 OPKC-OPIS
Flight info
| Callsign | PIA185 |
|---|---|
| Flight time | 1h 31m |
| Altitude | 37000 |
| Route | BADUL B466 NH Z301 BELKO |
| Aircraft | A320/M-SDE3FGHIRWY/LB1 |
Departure
| Time | 2026-04-29 21:31 |
|---|---|
| Airport | Jinnah International Airport (OPKC) |
Arrival
| Time | 2026-04-29 23:02 |
|---|---|
| Airport | Islamabad International Airport (OPIS) |
| Time | Latitude | Longitude | Altitude | Speed | Heading |
|---|---|---|---|---|---|
| 2026-04-29 20:59 | 24.90190 | 67.16672 | 100 ft | 0 kts | 241° |
| 2026-04-29 21:04 | 24.90140 | 67.16688 | 100 ft | 0 kts | 254° |
| 2026-04-29 21:20 | 24.90143 | 67.16701 | 100 ft | 3 kts | 257° |
| 2026-04-29 21:21 | 24.90147 | 67.16723 | 101 ft | 3 kts | 262° |
| 2026-04-29 21:21 | 24.90150 | 67.16746 | 101 ft | 3 kts | 255° |
| 2026-04-29 21:21 | 24.90154 | 67.16759 | 99 ft | 0 kts | 231° |
| 2026-04-29 21:25 | 24.90154 | 67.16758 | 101 ft | 0 kts | 231° |
| 2026-04-29 21:26 | 24.90164 | 67.16740 | 101 ft | 3 kts | 0° |
| 2026-04-29 21:26 | 24.90181 | 67.16757 | 101 ft | 3 kts | 34° |
| 2026-04-29 21:26 | 24.90222 | 67.16759 | 101 ft | 9 kts | 349° |
| 2026-04-29 21:26 | 24.90275 | 67.16743 | 101 ft | 7 kts | 344° |
| 2026-04-29 21:27 | 24.90304 | 67.16734 | 101 ft | 6 kts | 344° |
| 2026-04-29 21:27 | 24.90376 | 67.16712 | 101 ft | 11 kts | 344° |
| 2026-04-29 21:27 | 24.90447 | 67.16696 | 102 ft | 9 kts | 5° |
| 2026-04-29 21:27 | 24.90487 | 67.16736 | 101 ft | 7 kts | 67° |
| 2026-04-29 21:28 | 24.90498 | 67.16785 | 100 ft | 6 kts | 75° |
| 2026-04-29 21:28 | 24.90512 | 67.16837 | 102 ft | 11 kts | 74° |
| 2026-04-29 21:28 | 24.90537 | 67.16937 | 102 ft | 15 kts | 74° |
| 2026-04-29 21:28 | 24.90567 | 67.17056 | 102 ft | 18 kts | 74° |
| 2026-04-29 21:29 | 24.90604 | 67.17197 | 102 ft | 20 kts | 74° |
| 2026-04-29 21:29 | 24.90629 | 67.17294 | 100 ft | 18 kts | 75° |
| 2026-04-29 21:29 | 24.90660 | 67.17391 | 100 ft | 11 kts | 63° |
| 2026-04-29 21:29 | 24.90711 | 67.17440 | 103 ft | 9 kts | 30° |
| 2026-04-29 21:30 | 24.90756 | 67.17468 | 104 ft | 6 kts | 30° |
| 2026-04-29 21:30 | 24.90801 | 67.17490 | 105 ft | 8 kts | 10° |
| 2026-04-29 21:30 | 24.90861 | 67.17472 | 107 ft | 10 kts | 315° |
| 2026-04-29 21:30 | 24.90856 | 67.17404 | 106 ft | 10 kts | 253° |
| 2026-04-29 21:31 | 24.90801 | 67.17194 | 107 ft | 62 kts | 255° |
| 2026-04-29 21:31 | 24.90625 | 67.16493 | 104 ft | 125 kts | 254° |
| 2026-04-29 21:31 | 24.90341 | 67.15390 | 139 ft | 169 kts | 253° |
| 2026-04-29 21:31 | 24.90040 | 67.14176 | 817 ft | 163 kts | 258° |
| 2026-04-29 21:32 | 24.90151 | 67.12961 | 1477 ft | 164 kts | 296° |
| 2026-04-29 21:32 | 24.90970 | 67.12064 | 2073 ft | 178 kts | 328° |
| 2026-04-29 21:32 | 24.92294 | 67.11900 | 2269 ft | 215 kts | 10° |
| 2026-04-29 21:32 | 24.93662 | 67.12838 | 2448 ft | 250 kts | 38° |
| 2026-04-29 21:33 | 24.94891 | 67.14320 | 2871 ft | 269 kts | 47° |
| 2026-04-29 21:33 | 24.96046 | 67.15978 | 3524 ft | 275 kts | 50° |
| 2026-04-29 21:33 | 24.97184 | 67.17678 | 4273 ft | 276 kts | 51° |
| 2026-04-29 21:33 | 24.98325 | 67.19355 | 5022 ft | 277 kts | 50° |
| 2026-04-29 21:34 | 24.99504 | 67.21038 | 5780 ft | 277 kts | 49° |
| 2026-04-29 21:34 | 25.00705 | 67.22712 | 6429 ft | 281 kts | 49° |
| 2026-04-29 21:34 | 25.01933 | 67.24393 | 7164 ft | 280 kts | 49° |
| 2026-04-29 21:34 | 25.03156 | 67.26053 | 7970 ft | 278 kts | 49° |
| 2026-04-29 21:35 | 25.04379 | 67.27701 | 8774 ft | 278 kts | 49° |
| 2026-04-29 21:35 | 25.05608 | 67.29351 | 9566 ft | 278 kts | 49° |
| 2026-04-29 21:35 | 25.06838 | 67.31004 | 10229 ft | 281 kts | 49° |
| 2026-04-29 21:35 | 25.08082 | 67.32676 | 10886 ft | 284 kts | 49° |
| 2026-04-29 21:36 | 25.09342 | 67.34374 | 11535 ft | 287 kts | 49° |
| 2026-04-29 21:36 | 25.10642 | 67.36019 | 12159 ft | 289 kts | 40° |
| 2026-04-29 21:36 | 25.12214 | 67.37516 | 12393 ft | 310 kts | 37° |
| 2026-04-29 21:36 | 25.13934 | 67.39098 | 12551 ft | 333 kts | 37° |
| 2026-04-29 21:37 | 25.15776 | 67.40786 | 12710 ft | 353 kts | 37° |
| 2026-04-29 21:37 | 25.17692 | 67.42546 | 13192 ft | 362 kts | 37° |
| 2026-04-29 21:37 | 25.19633 | 67.44337 | 13766 ft | 366 kts | 37° |
| 2026-04-29 21:37 | 25.21594 | 67.46150 | 14336 ft | 369 kts | 37° |
| 2026-04-29 21:38 | 25.23569 | 67.47980 | 14914 ft | 372 kts | 36° |
| 2026-04-29 21:38 | 25.25567 | 67.49817 | 15499 ft | 375 kts | 36° |
| 2026-04-29 21:38 | 25.27588 | 67.51663 | 16075 ft | 378 kts | 35° |
| 2026-04-29 21:38 | 25.29626 | 67.53522 | 16649 ft | 381 kts | 34° |
| 2026-04-29 21:39 | 25.31678 | 67.55396 | 17215 ft | 385 kts | 34° |
| 2026-04-29 21:39 | 25.33754 | 67.57292 | 17768 ft | 388 kts | 34° |
| 2026-04-29 21:39 | 25.35847 | 67.59203 | 18287 ft | 392 kts | 34° |
| 2026-04-29 21:39 | 25.37936 | 67.61110 | 18764 ft | 395 kts | 34° |
| 2026-04-29 21:40 | 25.40066 | 67.63057 | 19267 ft | 398 kts | 34° |
| 2026-04-29 21:40 | 25.42208 | 67.65022 | 19739 ft | 402 kts | 34° |
| 2026-04-29 21:40 | 25.44371 | 67.67009 | 20237 ft | 405 kts | 34° |
| 2026-04-29 21:40 | 25.46548 | 67.69006 | 20721 ft | 409 kts | 33° |
| 2026-04-29 21:41 | 25.48749 | 67.71028 | 21206 ft | 412 kts | 34° |
| 2026-04-29 21:41 | 25.50961 | 67.73057 | 21698 ft | 415 kts | 33° |
| 2026-04-29 21:41 | 25.53195 | 67.75106 | 22194 ft | 418 kts | 33° |
| 2026-04-29 21:41 | 25.55444 | 67.77168 | 22695 ft | 421 kts | 33° |
| 2026-04-29 21:42 | 25.57712 | 67.79249 | 23173 ft | 425 kts | 33° |
| 2026-04-29 21:42 | 25.59990 | 67.81345 | 23551 ft | 428 kts | 33° |
| 2026-04-29 21:42 | 25.62289 | 67.83462 | 23936 ft | 430 kts | 33° |
| 2026-04-29 21:42 | 25.64562 | 67.85557 | 24319 ft | 432 kts | 33° |
| 2026-04-29 21:43 | 25.66876 | 67.87694 | 24838 ft | 427 kts | 33° |
| 2026-04-29 21:43 | 25.69098 | 67.89759 | 25982 ft | 407 kts | 32° |
| 2026-04-29 21:43 | 25.71208 | 67.91728 | 27135 ft | 386 kts | 33° |
| 2026-04-29 21:43 | 25.73212 | 67.93602 | 28245 ft | 369 kts | 31° |
| 2026-04-29 21:44 | 25.75163 | 67.95413 | 28883 ft | 364 kts | 31° |
| 2026-04-29 21:44 | 25.77110 | 67.97203 | 29293 ft | 364 kts | 30° |
| 2026-04-29 21:44 | 25.79068 | 67.98994 | 29649 ft | 365 kts | 30° |
| 2026-04-29 21:44 | 25.81036 | 68.00792 | 29924 ft | 368 kts | 30° |
| 2026-04-29 21:45 | 25.83017 | 68.02606 | 30166 ft | 371 kts | 30° |
| 2026-04-29 21:45 | 25.85009 | 68.04441 | 30431 ft | 373 kts | 30° |
| 2026-04-29 21:45 | 25.87009 | 68.06291 | 30682 ft | 375 kts | 31° |
| 2026-04-29 21:45 | 25.89017 | 68.08156 | 30951 ft | 378 kts | 31° |
| 2026-04-29 21:46 | 25.91045 | 68.10035 | 31205 ft | 381 kts | 31° |
| 2026-04-29 21:46 | 25.93086 | 68.11926 | 31454 ft | 383 kts | 31° |
| 2026-04-29 21:46 | 25.95139 | 68.13831 | 31715 ft | 386 kts | 31° |
| 2026-04-29 21:46 | 25.97178 | 68.15724 | 31975 ft | 388 kts | 31° |
| 2026-04-29 21:47 | 25.99255 | 68.17652 | 32218 ft | 391 kts | 31° |
| 2026-04-29 21:47 | 26.01353 | 68.19600 | 32476 ft | 393 kts | 31° |
| 2026-04-29 21:47 | 26.03456 | 68.21556 | 32742 ft | 395 kts | 31° |
| 2026-04-29 21:47 | 26.05573 | 68.23528 | 32997 ft | 397 kts | 31° |
| 2026-04-29 21:48 | 26.07699 | 68.25508 | 33235 ft | 401 kts | 31° |
| 2026-04-29 21:48 | 26.09845 | 68.27508 | 33415 ft | 404 kts | 31° |
| 2026-04-29 21:48 | 26.12006 | 68.29521 | 33628 ft | 407 kts | 31° |
| 2026-04-29 21:48 | 26.14184 | 68.31549 | 33818 ft | 409 kts | 31° |
| 2026-04-29 21:49 | 26.16369 | 68.33587 | 34020 ft | 410 kts | 31° |
| 2026-04-29 21:49 | 26.18558 | 68.35630 | 34230 ft | 412 kts | 31° |
| 2026-04-29 21:49 | 26.20741 | 68.37638 | 34415 ft | 411 kts | 28° |
| 2026-04-29 21:49 | 26.23093 | 68.39389 | 34588 ft | 404 kts | 20° |
| 2026-04-29 21:50 | 26.25563 | 68.40869 | 34772 ft | 403 kts | 19° |
| 2026-04-29 21:50 | 26.28048 | 68.42335 | 34956 ft | 405 kts | 19° |
| 2026-04-29 21:50 | 26.30541 | 68.43804 | 35142 ft | 406 kts | 19° |
| 2026-04-29 21:50 | 26.33040 | 68.45280 | 35325 ft | 407 kts | 19° |
| 2026-04-29 21:51 | 26.35548 | 68.46764 | 35505 ft | 409 kts | 19° |
| 2026-04-29 21:51 | 26.38073 | 68.48265 | 35655 ft | 411 kts | 19° |
| 2026-04-29 21:51 | 26.43139 | 68.51281 | 35955 ft | 415 kts | 20° |
| 2026-04-29 21:52 | 26.45690 | 68.52803 | 36106 ft | 416 kts | 20° |
| 2026-04-29 21:52 | 26.48209 | 68.54311 | 36298 ft | 417 kts | 20° |
| 2026-04-29 21:52 | 26.50768 | 68.55841 | 36477 ft | 417 kts | 20° |
| 2026-04-29 21:52 | 26.53330 | 68.57370 | 36601 ft | 419 kts | 20° |
| 2026-04-29 21:53 | 26.58536 | 68.60466 | 36630 ft | 429 kts | 20° |
| 2026-04-29 21:53 | 26.63858 | 68.63641 | 36630 ft | 438 kts | 20° |
| 2026-04-29 21:54 | 26.69289 | 68.66879 | 36625 ft | 446 kts | 20° |
| 2026-04-29 21:54 | 26.74816 | 68.70179 | 36624 ft | 454 kts | 20° |
| 2026-04-29 21:55 | 26.80438 | 68.73539 | 36627 ft | 461 kts | 20° |
| 2026-04-29 21:55 | 26.86096 | 68.76926 | 36626 ft | 466 kts | 21° |
| 2026-04-29 21:56 | 26.91853 | 68.80382 | 36626 ft | 471 kts | 21° |
| 2026-04-29 21:56 | 26.97644 | 68.83859 | 36626 ft | 473 kts | 21° |
| 2026-04-29 21:57 | 27.03459 | 68.87348 | 36628 ft | 473 kts | 20° |
| 2026-04-29 21:57 | 27.09257 | 68.90831 | 36624 ft | 472 kts | 20° |
| 2026-04-29 21:58 | 27.15047 | 68.94315 | 36630 ft | 472 kts | 20° |
| 2026-04-29 21:58 | 27.20799 | 68.97783 | 36633 ft | 472 kts | 20° |
| 2026-04-29 21:59 | 27.26593 | 69.01278 | 36630 ft | 472 kts | 20° |
| 2026-04-29 21:59 | 27.32385 | 69.04777 | 36634 ft | 472 kts | 20° |
| 2026-04-29 22:00 | 27.38181 | 69.08277 | 36643 ft | 474 kts | 20° |
| 2026-04-29 22:00 | 27.43994 | 69.11792 | 36641 ft | 474 kts | 20° |
| 2026-04-29 22:01 | 27.49811 | 69.15307 | 36639 ft | 475 kts | 20° |
| 2026-04-29 22:01 | 27.55635 | 69.18828 | 36640 ft | 475 kts | 20° |
| 2026-04-29 22:02 | 27.61454 | 69.22353 | 36648 ft | 475 kts | 20° |
| 2026-04-29 22:02 | 27.67273 | 69.25884 | 36660 ft | 475 kts | 20° |
| 2026-04-29 22:03 | 27.73061 | 69.29399 | 36651 ft | 475 kts | 20° |
| 2026-04-29 22:03 | 27.78885 | 69.32939 | 36651 ft | 475 kts | 20° |
| 2026-04-29 22:04 | 27.84714 | 69.36479 | 36649 ft | 476 kts | 20° |
| 2026-04-29 22:04 | 27.90552 | 69.40043 | 36632 ft | 477 kts | 20° |
| 2026-04-29 22:05 | 27.96398 | 69.43619 | 36641 ft | 478 kts | 20° |
| 2026-04-29 22:06 | 28.05156 | 69.48968 | 36632 ft | 479 kts | 20° |
| 2026-04-29 22:06 | 28.11028 | 69.52560 | 36628 ft | 479 kts | 20° |
| 2026-04-29 22:07 | 28.16896 | 69.56160 | 36653 ft | 479 kts | 20° |
| 2026-04-29 22:07 | 28.22756 | 69.59763 | 36650 ft | 478 kts | 20° |
| 2026-04-29 22:08 | 28.28577 | 69.63334 | 36655 ft | 477 kts | 20° |
| 2026-04-29 22:08 | 28.34394 | 69.66913 | 36650 ft | 477 kts | 20° |
| 2026-04-29 22:09 | 28.40218 | 69.70507 | 36630 ft | 476 kts | 20° |
| 2026-04-29 22:09 | 28.46032 | 69.74102 | 36626 ft | 475 kts | 20° |
| 2026-04-29 22:10 | 28.51837 | 69.77689 | 36626 ft | 475 kts | 20° |
| 2026-04-29 22:10 | 28.57650 | 69.81263 | 36630 ft | 474 kts | 19° |
| 2026-04-29 22:11 | 28.63483 | 69.84751 | 36626 ft | 473 kts | 19° |
| 2026-04-29 22:11 | 28.69318 | 69.88230 | 36653 ft | 473 kts | 19° |
| 2026-04-29 22:12 | 28.75098 | 69.91705 | 36649 ft | 473 kts | 19° |
| 2026-04-29 22:12 | 28.80907 | 69.95216 | 36648 ft | 472 kts | 19° |
| 2026-04-29 22:13 | 28.86718 | 69.98736 | 36667 ft | 472 kts | 18° |
| 2026-04-29 22:13 | 28.92534 | 70.02260 | 36664 ft | 473 kts | 18° |
| 2026-04-29 22:14 | 28.98346 | 70.05780 | 36659 ft | 473 kts | 19° |
| 2026-04-29 22:14 | 29.04163 | 70.09313 | 36645 ft | 473 kts | 19° |
| 2026-04-29 22:15 | 29.09933 | 70.12824 | 36646 ft | 473 kts | 19° |
| 2026-04-29 22:15 | 29.15783 | 70.16387 | 36654 ft | 473 kts | 19° |
| 2026-04-29 22:16 | 29.21555 | 70.19896 | 36662 ft | 473 kts | 18° |
| 2026-04-29 22:16 | 29.27370 | 70.23436 | 36671 ft | 473 kts | 18° |
| 2026-04-29 22:17 | 29.32188 | 70.26384 | 36667 ft | 472 kts | 19° |
| 2026-04-29 22:17 | 29.38932 | 70.30514 | 36670 ft | 472 kts | 18° |
| 2026-04-29 22:18 | 29.44724 | 70.34066 | 36667 ft | 472 kts | 18° |
| 2026-04-29 22:18 | 29.49542 | 70.37025 | 36692 ft | 472 kts | 18° |
| 2026-04-29 22:19 | 29.55337 | 70.40575 | 36679 ft | 471 kts | 18° |
| 2026-04-29 22:19 | 29.61124 | 70.44125 | 36673 ft | 471 kts | 18° |
| 2026-04-29 22:20 | 29.66902 | 70.47675 | 36663 ft | 469 kts | 15° |
| 2026-04-29 22:20 | 29.72715 | 70.51073 | 36672 ft | 471 kts | 18° |
| 2026-04-29 22:21 | 29.78457 | 70.54736 | 36690 ft | 472 kts | 19° |
| 2026-04-29 22:21 | 29.84199 | 70.58397 | 36686 ft | 471 kts | 18° |
| 2026-04-29 22:22 | 29.89969 | 70.61973 | 36677 ft | 471 kts | 18° |
| 2026-04-29 22:22 | 29.95721 | 70.65502 | 36680 ft | 471 kts | 18° |
| 2026-04-29 22:23 | 30.01495 | 70.69082 | 36678 ft | 471 kts | 18° |
| 2026-04-29 22:23 | 30.07263 | 70.72676 | 36718 ft | 471 kts | 18° |
| 2026-04-29 22:24 | 30.13044 | 70.76268 | 36685 ft | 472 kts | 18° |
| 2026-04-29 22:24 | 30.18796 | 70.79846 | 36683 ft | 472 kts | 18° |
| 2026-04-29 22:25 | 30.24585 | 70.83407 | 36680 ft | 470 kts | 17° |
| 2026-04-29 22:25 | 30.30450 | 70.86735 | 36679 ft | 468 kts | 15° |
| 2026-04-29 22:26 | 30.36330 | 70.89947 | 36696 ft | 467 kts | 15° |
| 2026-04-29 22:26 | 30.42198 | 70.93224 | 36697 ft | 468 kts | 15° |
| 2026-04-29 22:27 | 30.48046 | 70.96548 | 36697 ft | 468 kts | 15° |
| 2026-04-29 22:27 | 30.53894 | 70.99875 | 36693 ft | 468 kts | 15° |
| 2026-04-29 22:28 | 30.59708 | 71.03177 | 36690 ft | 468 kts | 15° |
| 2026-04-29 22:28 | 30.65557 | 71.06498 | 36689 ft | 468 kts | 15° |
| 2026-04-29 22:29 | 30.71411 | 71.09819 | 36710 ft | 468 kts | 15° |
| 2026-04-29 22:29 | 30.77265 | 71.13153 | 36702 ft | 468 kts | 15° |
| 2026-04-29 22:30 | 30.83117 | 71.16480 | 36703 ft | 468 kts | 15° |
| 2026-04-29 22:30 | 30.88931 | 71.19799 | 36696 ft | 468 kts | 15° |
| 2026-04-29 22:31 | 30.94783 | 71.23153 | 36711 ft | 469 kts | 15° |
| 2026-04-29 22:31 | 31.00633 | 71.26508 | 36726 ft | 469 kts | 15° |
| 2026-04-29 22:32 | 31.06493 | 71.29868 | 36724 ft | 469 kts | 15° |
| 2026-04-29 22:32 | 31.12354 | 71.33231 | 36718 ft | 469 kts | 15° |
| 2026-04-29 22:33 | 31.18216 | 71.36595 | 36720 ft | 469 kts | 15° |
| 2026-04-29 22:33 | 31.24044 | 71.39948 | 36743 ft | 469 kts | 15° |
| 2026-04-29 22:34 | 31.29906 | 71.43325 | 36728 ft | 470 kts | 16° |
| 2026-04-29 22:34 | 31.35783 | 71.46717 | 36721 ft | 471 kts | 16° |
| 2026-04-29 22:35 | 31.41662 | 71.50112 | 36716 ft | 471 kts | 16° |
| 2026-04-29 22:35 | 31.47547 | 71.53513 | 36715 ft | 471 kts | 16° |
| 2026-04-29 22:36 | 31.53389 | 71.56905 | 36760 ft | 471 kts | 16° |
| 2026-04-29 22:36 | 31.59285 | 71.60322 | 36714 ft | 472 kts | 16° |
| 2026-04-29 22:37 | 31.65192 | 71.63761 | 36712 ft | 473 kts | 17° |
| 2026-04-29 22:37 | 31.71093 | 71.67206 | 36710 ft | 473 kts | 17° |
| 2026-04-29 22:38 | 31.76954 | 71.70627 | 36712 ft | 473 kts | 17° |
| 2026-04-29 22:38 | 31.82859 | 71.74076 | 36738 ft | 474 kts | 17° |
| 2026-04-29 22:39 | 31.88768 | 71.77526 | 36729 ft | 474 kts | 17° |
| 2026-04-29 22:39 | 31.94678 | 71.80986 | 36726 ft | 475 kts | 17° |
| 2026-04-29 22:40 | 32.00594 | 71.84460 | 36724 ft | 475 kts | 17° |
| 2026-04-29 22:40 | 32.06510 | 71.87931 | 36725 ft | 475 kts | 17° |
| 2026-04-29 22:41 | 32.12424 | 71.91417 | 36758 ft | 475 kts | 17° |
| 2026-04-29 22:41 | 32.18338 | 71.94908 | 36736 ft | 476 kts | 17° |
| 2026-04-29 22:42 | 32.24250 | 71.98389 | 36643 ft | 472 kts | 17° |
| 2026-04-29 22:42 | 32.27172 | 72.00118 | 35832 ft | 471 kts | 18° |
| 2026-04-29 22:42 | 32.30076 | 72.01834 | 34928 ft | 473 kts | 18° |
| 2026-04-29 22:42 | 32.33022 | 72.03574 | 34021 ft | 475 kts | 19° |
| 2026-04-29 22:43 | 32.35973 | 72.05319 | 33241 ft | 473 kts | 19° |
| 2026-04-29 22:43 | 32.38912 | 72.07059 | 32424 ft | 472 kts | 20° |
| 2026-04-29 22:43 | 32.41876 | 72.08817 | 31808 ft | 468 kts | 21° |
| 2026-04-29 22:43 | 32.44774 | 72.10543 | 31206 ft | 465 kts | 22° |
| 2026-04-29 22:44 | 32.47538 | 72.12423 | 30627 ft | 466 kts | 31° |
| 2026-04-29 22:44 | 32.50160 | 72.14677 | 30046 ft | 465 kts | 33° |
| 2026-04-29 22:44 | 32.52772 | 72.16950 | 29671 ft | 457 kts | 33° |
| 2026-04-29 22:44 | 32.55290 | 72.19151 | 29050 ft | 454 kts | 34° |
| 2026-04-29 22:45 | 32.57815 | 72.21368 | 28499 ft | 450 kts | 34° |
| 2026-04-29 22:45 | 32.60315 | 72.23568 | 27939 ft | 446 kts | 34° |
| 2026-04-29 22:45 | 32.62793 | 72.25747 | 27416 ft | 441 kts | 34° |
| 2026-04-29 22:45 | 32.65254 | 72.27903 | 26877 ft | 437 kts | 34° |
| 2026-04-29 22:46 | 32.67688 | 72.30033 | 26366 ft | 432 kts | 34° |
| 2026-04-29 22:46 | 32.70095 | 72.32143 | 25857 ft | 428 kts | 34° |
| 2026-04-29 22:46 | 32.72482 | 72.34234 | 25354 ft | 424 kts | 34° |
| 2026-04-29 22:46 | 32.74846 | 72.36304 | 24861 ft | 421 kts | 34° |
| 2026-04-29 22:47 | 32.77192 | 72.38361 | 24354 ft | 418 kts | 35° |
| 2026-04-29 22:47 | 32.79516 | 72.40401 | 23843 ft | 415 kts | 35° |
| 2026-04-29 22:47 | 32.81829 | 72.42433 | 23254 ft | 413 kts | 35° |
| 2026-04-29 22:47 | 32.84147 | 72.44470 | 22035 ft | 425 kts | 35° |
| 2026-04-29 22:48 | 32.86561 | 72.46592 | 20789 ft | 437 kts | 35° |
| 2026-04-29 22:48 | 32.89013 | 72.48751 | 19552 ft | 447 kts | 35° |
| 2026-04-29 22:48 | 32.91526 | 72.50964 | 18619 ft | 449 kts | 34° |
| 2026-04-29 22:48 | 32.94025 | 72.53172 | 17854 ft | 446 kts | 34° |
| 2026-04-29 22:49 | 32.96499 | 72.55360 | 17062 ft | 441 kts | 34° |
| 2026-04-29 22:49 | 32.98948 | 72.57528 | 16308 ft | 437 kts | 34° |
| 2026-04-29 22:49 | 33.01376 | 72.59676 | 15579 ft | 433 kts | 34° |
| 2026-04-29 22:49 | 33.03778 | 72.61811 | 14900 ft | 429 kts | 35° |
| 2026-04-29 22:50 | 33.05901 | 72.64299 | 14252 ft | 428 kts | 47° |
| 2026-04-29 22:50 | 33.07777 | 72.67040 | 13588 ft | 425 kts | 48° |
| 2026-04-29 22:50 | 33.09630 | 72.69772 | 12881 ft | 422 kts | 48° |
| 2026-04-29 22:50 | 33.11463 | 72.72487 | 12200 ft | 417 kts | 49° |
| 2026-04-29 22:51 | 33.13273 | 72.75172 | 11520 ft | 412 kts | 49° |
| 2026-04-29 22:51 | 33.15040 | 72.77786 | 10855 ft | 407 kts | 49° |
| 2026-04-29 22:51 | 33.18561 | 72.82978 | 9499 ft | 398 kts | 49° |
| 2026-04-29 22:52 | 33.20289 | 72.85529 | 8765 ft | 393 kts | 49° |
| 2026-04-29 22:52 | 33.21996 | 72.88050 | 8030 ft | 387 kts | 50° |
| 2026-04-29 22:52 | 33.23670 | 72.90530 | 7557 ft | 374 kts | 50° |
| 2026-04-29 22:52 | 33.25227 | 72.92847 | 7301 ft | 342 kts | 50° |
| 2026-04-29 22:53 | 33.26649 | 72.94967 | 7133 ft | 312 kts | 49° |
| 2026-04-29 22:53 | 33.27946 | 72.96893 | 7017 ft | 285 kts | 49° |
| 2026-04-29 22:53 | 33.29137 | 72.98656 | 6899 ft | 261 kts | 49° |
| 2026-04-29 22:53 | 33.30233 | 73.00279 | 6774 ft | 240 kts | 50° |
| 2026-04-29 22:54 | 33.31252 | 73.01793 | 6445 ft | 230 kts | 50° |
| 2026-04-29 22:54 | 33.32248 | 73.03271 | 5980 ft | 227 kts | 50° |
| 2026-04-29 22:54 | 33.33233 | 73.04733 | 5492 ft | 225 kts | 50° |
| 2026-04-29 22:54 | 33.34211 | 73.06184 | 4998 ft | 223 kts | 50° |
| 2026-04-29 22:55 | 33.35182 | 73.07625 | 4514 ft | 222 kts | 50° |
| 2026-04-29 22:55 | 33.36145 | 73.09056 | 4025 ft | 220 kts | 50° |
| 2026-04-29 22:55 | 33.37093 | 73.10466 | 3740 ft | 215 kts | 50° |
| 2026-04-29 22:55 | 33.38043 | 73.11879 | 3699 ft | 219 kts | 50° |
| 2026-04-29 22:56 | 33.39089 | 73.13203 | 3699 ft | 219 kts | 33° |
| 2026-04-29 22:56 | 33.40467 | 73.13922 | 3701 ft | 217 kts | 9° |
| 2026-04-29 22:56 | 33.41969 | 73.13884 | 3702 ft | 218 kts | 345° |
| 2026-04-29 22:56 | 33.43328 | 73.13098 | 3702 ft | 219 kts | 321° |
| 2026-04-29 22:57 | 33.44460 | 73.11870 | 3703 ft | 220 kts | 318° |
| 2026-04-29 22:57 | 33.45587 | 73.10626 | 3712 ft | 221 kts | 319° |
| 2026-04-29 22:57 | 33.46715 | 73.09382 | 3711 ft | 221 kts | 319° |
| 2026-04-29 22:57 | 33.47845 | 73.08140 | 3704 ft | 220 kts | 319° |
| 2026-04-29 22:58 | 33.48959 | 73.06916 | 3706 ft | 220 kts | 319° |
| 2026-04-29 22:58 | 33.50106 | 73.05658 | 3706 ft | 220 kts | 319° |
| 2026-04-29 22:58 | 33.51109 | 73.04307 | 3704 ft | 221 kts | 303° |
| 2026-04-29 22:58 | 33.51737 | 73.02619 | 3706 ft | 223 kts | 289° |
| 2026-04-29 22:59 | 33.52121 | 73.00814 | 3705 ft | 224 kts | 283° |
| 2026-04-29 22:59 | 33.52419 | 72.98990 | 3705 ft | 219 kts | 282° |
| 2026-04-29 22:59 | 33.52689 | 72.97261 | 3723 ft | 202 kts | 282° |
| 2026-04-29 22:59 | 33.52943 | 72.95648 | 3540 ft | 192 kts | 283° |
| 2026-04-29 23:00 | 33.53181 | 72.94142 | 3335 ft | 173 kts | 283° |
| 2026-04-29 23:00 | 33.53393 | 72.92796 | 3115 ft | 157 kts | 283° |
| 2026-04-29 23:00 | 33.53590 | 72.91550 | 2925 ft | 148 kts | 284° |
| 2026-04-29 23:00 | 33.53779 | 72.90355 | 2742 ft | 144 kts | 284° |
| 2026-04-29 23:01 | 33.53963 | 72.89186 | 2559 ft | 142 kts | 283° |
| 2026-04-29 23:01 | 33.54146 | 72.88029 | 2371 ft | 141 kts | 282° |
| 2026-04-29 23:01 | 33.54328 | 72.86875 | 2189 ft | 141 kts | 282° |
| 2026-04-29 23:01 | 33.54509 | 72.85713 | 2011 ft | 142 kts | 281° |
| 2026-04-29 23:02 | 33.54691 | 72.84551 | 1829 ft | 141 kts | 280° |
| 2026-04-29 23:02 | 33.54860 | 72.83464 | 1766 ft | 114 kts | 279° |
| 2026-04-29 23:02 | 33.54974 | 72.82737 | 1760 ft | 64 kts | 281° |
| 2026-04-29 23:02 | 33.55021 | 72.82473 | 1759 ft | 17 kts | 301° |
| 2026-04-29 23:03 | 33.55090 | 72.82454 | 1766 ft | 7 kts | 11° |
| 2026-04-29 23:03 | 33.55110 | 72.82459 | 1768 ft | 0 kts | 11° |
| 2026-04-29 23:03 | 33.55116 | 72.82460 | 1767 ft | 2 kts | 11° |
| 2026-04-29 23:03 | 33.55137 | 72.82466 | 1769 ft | 6 kts | 11° |
| 2026-04-29 23:04 | 33.55175 | 72.82476 | 1770 ft | 6 kts | 20° |
| 2026-04-29 23:04 | 33.55202 | 72.82531 | 1768 ft | 8 kts | 91° |
| 2026-04-29 23:04 | 33.55194 | 72.82588 | 1771 ft | 6 kts | 100° |
| 2026-04-29 23:04 | 33.55187 | 72.82636 | 1768 ft | 7 kts | 100° |
| 2026-04-29 23:05 | 33.55177 | 72.82701 | 1770 ft | 8 kts | 100° |
| 2026-04-29 23:05 | 33.55163 | 72.82793 | 1770 ft | 13 kts | 101° |
| 2026-04-29 23:05 | 33.55148 | 72.82899 | 1769 ft | 13 kts | 94° |
| 2026-04-29 23:05 | 33.55185 | 72.82993 | 1771 ft | 12 kts | 55° |
| 2026-04-29 23:06 | 33.55217 | 72.83049 | 1772 ft | 12 kts | 56° |
| 2026-04-29 23:06 | 33.55247 | 72.83098 | 1769 ft | 4 kts | 45° |
| 2026-04-29 23:06 | 33.55269 | 72.83098 | 1769 ft | 2 kts | 337° |
| 2026-04-29 23:06 | 33.55280 | 72.83090 | 1769 ft | 1 kts | 327° |
| 2026-04-29 23:07 | 33.55284 | 72.83087 | 1771 ft | 0 kts | 326° |
| 2026-04-29 23:07 | 33.55292 | 72.83080 | 1773 ft | 4 kts | 326° |
| 2026-04-29 23:07 | 33.55333 | 72.83047 | 1770 ft | 4 kts | 326° |
| 2026-04-29 23:07 | 33.55338 | 72.83043 | 1770 ft | 0 kts | 326° |